Terminal Aerodrome Forecast
Issued by NWS

Home | Current Version | Previous Version | Graphics & Text | Print | Product List | Glossary Off
Versions: 1 2 3 4 5 6 7 8 9 10 11 12 13 14 15 16 17 18 19 20 21 22 23 24 25 26 27 28 29 30 31

000
FTUS43 KDDC 252341
TAFGCK
TAF
KGCK 252341Z 2600/2624 VRB05KT P6SM BKN250
     FM261000 12012KT 2SM BR BKN007
     FM261700 11014G22KT P6SM BKN010
     FM262000 08013KT P6SM BKN020
     FM262300 03014G22KT P6SM BKN020=

USA.gov is the U.S. government's official web portal to all federal, state and local government web resources and services.